Time;durP1;ratioP1;P1;durP2;ratioP2;P2;SDS_P1;SDS_P2;PMS_P1;PMS_P2;Temp;Humidity;BMP_temperature;BMP_pressure;BME280_temperature;BME280_humidity;BME280_pressure;Samples;Min_cycle;Max_cycle;Signal;HPM_P1;HPM_P2
2022/07/20 00:03:04;;;;;;;5.85;3.72;;;25.60;71.30;;;;;;5071267;28;20047;-72
2022/07/20 00:06:09;;;;;;;4.63;4.10;;;25.60;71.50;;;;;;5058142;28;20044;-73
2022/07/20 00:12:35;;;;;;;5.82;4.22;;;25.30;71.90;;;;;;5071222;28;20043;-72
2022/07/20 00:15:41;;;;;;;4.50;3.42;;;25.20;72.10;;;;;;5070864;28;20494;-73
2022/07/20 00:18:45;;;;;;;7.45;4.18;;;25.20;72.10;;;;;;5071176;28;20418;-72
2022/07/20 00:21:50;;;;;;;4.38;3.75;;;25.20;72.10;;;;;;5071007;28;20087;-72
2022/07/20 00:24:53;;;;;;;5.60;3.65;;;25.10;72.40;;;;;;5070797;28;20051;-72
2022/07/20 00:27:58;;;;;;;5.65;4.32;;;25.10;71.90;;;;;;5071214;28;20056;-72
2022/07/20 00:31:02;;;;;;;5.38;3.40;;;25.00;72.00;;;;;;5070721;28;20055;-72
2022/07/20 00:34:06;;;;;;;5.95;4.28;;;24.90;72.00;;;;;;5070712;28;20402;-73
2022/07/20 00:37:10;;;;;;;6.75;3.80;;;24.90;72.20;;;;;;5070772;28;20055;-72
2022/07/20 00:40:15;;;;;;;7.55;4.00;;;24.80;71.90;;;;;;5070843;28;20391;-72
2022/07/20 00:43:19;;;;;;;6.95;3.78;;;24.80;72.00;;;;;;5070584;28;20055;-72
2022/07/20 00:46:23;;;;;;;9.63;4.35;;;24.70;71.80;;;;;;5070836;28;20063;-73
2022/07/20 00:49:27;;;;;;;9.27;3.97;;;24.70;71.80;;;;;;5070857;28;20083;-73
2022/07/20 00:52:31;;;;;;;6.20;3.92;;;24.60;71.40;;;;;;5070637;28;20051;-73
2022/07/20 00:55:35;;;;;;;5.38;3.63;;;24.60;71.20;;;;;;5070056;28;20047;-72
2022/07/20 00:58:39;;;;;;;7.55;3.80;;;24.60;71.30;;;;;;5070758;28;20035;-72
2022/07/20 01:01:44;;;;;;;6.50;4.32;;;24.60;71.30;;;;;;5070544;28;20059;-72
2022/07/20 01:04:48;;;;;;;5.43;3.90;;;24.60;71.30;;;;;;5070253;28;20477;-72
2022/07/20 01:07:52;;;;;;;5.45;3.55;;;24.60;71.50;;;;;;5058032;28;20051;-72
2022/07/20 01:10:57;;;;;;;4.53;3.63;;;24.50;71.50;;;;;;5070437;28;20048;-72
2022/07/20 01:14:06;;;;;;;7.20;3.72;;;24.50;71.50;;;;;;5070166;28;20042;-72
2022/07/20 01:17:11;;;;;;;6.93;4.07;;;24.50;71.10;;;;;;5070512;28;20043;-72
2022/07/20 01:20:17;;;;;;;6.18;3.60;;;24.40;70.90;;;;;;5074631;28;20056;-73
2022/07/20 01:23:22;;;;;;;5.35;3.88;;;24.40;70.50;;;;;;5074389;28;20059;-72
2022/07/20 01:26:26;;;;;;;8.10;3.80;;;24.40;70.10;;;;;;5074462;28;20044;-72
2022/07/20 01:29:29;;;;;;;6.72;3.25;;;24.30;69.70;;;;;;5074290;28;20395;-72
2022/07/20 01:32:34;;;;;;;7.03;3.30;;;24.30;69.20;;;;;;5074296;28;20043;-72
2022/07/20 01:35:38;;;;;;;5.45;3.83;;;24.30;68.90;;;;;;5073832;28;20350;-72
2022/07/20 01:38:42;;;;;;;9.68;3.55;;;24.30;69.00;;;;;;5061747;28;20048;-72
2022/07/20 01:41:52;;;;;;;5.60;3.97;;;24.20;69.30;;;;;;5073396;28;20383;-72
2022/07/20 01:44:56;;;;;;;6.13;3.53;;;24.10;70.00;;;;;;5073504;28;20035;-72
2022/07/20 01:48:00;;;;;;;6.35;3.63;;;24.00;70.10;;;;;;5074218;28;20047;-72
2022/07/20 01:51:04;;;;;;;4.47;3.40;;;23.80;71.10;;;;;;5073805;28;20048;-72
2022/07/20 01:54:09;;;;;;;4.97;3.70;;;23.70;71.70;;;;;;5073750;28;20051;-71
2022/07/20 01:57:13;;;;;;;7.07;3.65;;;23.60;71.70;;;;;;5073616;28;20498;-71
2022/07/20 02:00:17;;;;;;;6.30;3.55;;;23.60;72.10;;;;;;5073864;28;20047;-71
2022/07/20 02:03:21;;;;;;;5.45;3.55;;;23.60;72.80;;;;;;5073802;28;20047;-72
2022/07/20 02:06:25;;;;;;;7.88;3.53;;;23.50;73.40;;;;;;5073699;28;20395;-71
2022/07/20 02:09:29;;;;;;;5.50;3.53;;;23.50;73.30;;;;;;5073514;28;20039;-72
2022/07/20 02:12:34;;;;;;;5.80;3.38;;;23.40;73.20;;;;;;5070272;28;20059;-72
2022/07/20 02:19:00;;;;;;;6.50;3.35;;;23.30;73.20;;;;;;5055817;28;20059;-72
2022/07/20 02:22:05;;;;;;;7.50;3.38;;;23.30;73.10;;;;;;5073396;28;20048;-72
2022/07/20 02:25:09;;;;;;;4.95;3.60;;;23.30;73.20;;;;;;5073089;28;20040;-72
2022/07/20 02:28:12;;;;;;;6.05;3.22;;;23.30;72.60;;;;;;5073307;28;20047;-72
2022/07/20 02:31:18;;;;;;;6.30;3.13;;;23.20;71.70;;;;;;5072720;28;20043;-71
2022/07/20 02:34:22;;;;;;;4.90;3.33;;;23.30;72.10;;;;;;5072964;28;20047;-71
2022/07/20 02:37:26;;;;;;;6.40;3.60;;;23.20;72.30;;;;;;5072820;28;20399;-71
2022/07/20 02:40:29;;;;;;;7.85;3.70;;;23.10;75.00;;;;;;5073077;28;20036;-71
2022/07/20 02:43:33;;;;;;;10.68;4.13;;;22.90;76.50;;;;;;5072724;28;20398;-72
2022/07/20 02:46:38;;;;;;;7.15;3.65;;;22.80;76.70;;;;;;5072552;28;20055;-72
2022/07/20 02:49:42;;;;;;;5.60;3.65;;;22.60;77.20;;;;;;5072826;28;20040;-72
2022/07/20 02:52:46;;;;;;;6.32;3.63;;;22.60;78.60;;;;;;5059920;28;20043;-71
2022/07/20 02:55:50;;;;;;;8.40;3.95;;;22.50;78.70;;;;;;5072437;28;20391;-71
2022/07/20 02:58:54;;;;;;;4.32;3.20;;;22.50;77.60;;;;;;5072527;28;20043;-72
2022/07/20 03:01:58;;;;;;;5.05;3.10;;;22.50;74.90;;;;;;5072770;28;20040;-71
2022/07/20 03:05:03;;;;;;;5.90;3.17;;;22.40;73.90;;;;;;5072038;28;20387;-71
2022/07/20 03:08:08;;;;;;;6.07;3.50;;;22.50;75.30;;;;;;5072322;28;20056;-71
2022/07/20 03:11:11;;;;;;;7.18;4.15;;;22.60;75.00;;;;;;5072295;28;20052;-72
2022/07/20 03:14:16;;;;;;;5.50;3.22;;;22.60;74.40;;;;;;5072157;28;20051;-72
2022/07/20 03:17:20;;;;;;;5.35;3.22;;;22.70;74.80;;;;;;5072078;28;20083;-72
2022/07/20 03:20:31;;;;;;;13.10;3.60;;;22.70;74.60;;;;;;5072005;28;20039;-71
2022/07/20 03:23:35;;;;;;;5.65;3.20;;;22.80;74.20;;;;;;5069100;28;20047;-71
2022/07/20 03:26:39;;;;;;;9.00;3.22;;;22.80;74.00;;;;;;5059549;28;20403;-71
2022/07/20 03:29:43;;;;;;;5.78;3.72;;;22.70;74.20;;;;;;5072119;28;20494;-72
2022/07/20 03:32:48;;;;;;;10.80;3.33;;;22.70;74.50;;;;;;5071883;28;20047;-72
2022/07/20 03:35:52;;;;;;;31.50;3.80;;;22.60;74.50;;;;;;5071990;28;20059;-72
2022/07/20 03:38:56;;;;;;;11.75;3.72;;;22.50;74.70;;;;;;5072168;28;20385;-71
2022/07/20 03:42:00;;;;;;;19.17;4.63;;;22.40;74.40;;;;;;5070756;28;20592;-71
2022/07/20 03:45:05;;;;;;;4.95;3.03;;;22.40;74.40;;;;;;5071335;28;20043;-72
2022/07/20 03:48:09;;;;;;;10.20;3.35;;;22.30;74.60;;;;;;5071799;28;20051;-72
2022/07/20 03:51:13;;;;;;;7.15;3.45;;;22.30;74.70;;;;;;5071486;28;20395;-72
2022/07/20 03:54:17;;;;;;;11.18;3.60;;;22.20;75.20;;;;;;5071176;28;20202;-72
2022/07/20 03:57:20;;;;;;;5.25;3.38;;;22.10;75.80;;;;;;5058820;28;20425;-72
2022/07/20 04:00:24;;;;;;;9.85;3.35;;;22.10;75.80;;;;;;5071338;28;20044;-71
2022/07/20 04:03:28;;;;;;;5.85;3.17;;;22.00;75.80;;;;;;5070763;28;20047;-71
2022/07/20 04:06:33;;;;;;;5.82;3.25;;;22.00;75.60;;;;;;5071338;28;20043;-72
2022/07/20 04:09:46;;;;;;;5.05;2.83;;;22.00;75.70;;;;;;5071288;28;20060;-71
2022/07/20 04:12:52;;;;;;;8.75;3.35;;;22.00;75.30;;;;;;5071155;28;20036;-72
2022/07/20 04:15:57;;;;;;;4.80;2.80;;;22.00;76.20;;;;;;5071125;28;20059;-72
2022/07/20 04:19:01;;;;;;;6.45;3.13;;;22.00;75.80;;;;;;5071159;28;20055;-71
2022/07/20 04:22:05;;;;;;;10.68;3.80;;;22.00;76.20;;;;;;5071325;28;20048;-72
2022/07/20 04:25:09;;;;;;;5.05;3.28;;;22.00;76.60;;;;;;5070788;28;20111;-72
2022/07/20 04:28:13;;;;;;;12.10;3.70;;;22.00;76.10;;;;;;5070896;28;20040;-71
2022/07/20 04:31:17;;;;;;;5.65;3.05;;;22.00;74.30;;;;;;5070923;28;20411;-71
2022/07/20 04:34:21;;;;;;;3.55;2.60;;;22.00;75.60;;;;;;5071485;28;20055;-72
2022/07/20 04:37:25;;;;;;;5.32;3.63;;;21.90;75.60;;;;;;5070429;28;20044;-72
2022/07/20 04:40:29;;;;;;;6.35;3.15;;;21.90;76.50;;;;;;5066473;28;20047;-71
2022/07/20 04:43:33;;;;;;;6.82;3.40;;;21.80;77.50;;;;;;5070348;28;20055;-72
2022/07/20 04:46:38;;;;;;;7.05;3.35;;;22.10;77.20;;;;;;5070520;28;20046;-72
2022/07/20 04:49:42;;;;;;;5.53;3.05;;;24.50;74.40;;;;;;5070828;28;20047;-72
2022/07/20 04:52:46;;;;;;;5.70;3.05;;;26.70;70.10;;;;;;5070116;28;20047;-72
2022/07/20 04:55:50;;;;;;;7.15;2.85;;;28.20;68.30;;;;;;5070890;28;20044;-72
2022/07/20 04:58:55;;;;;;;9.27;2.97;;;29.30;67.30;;;;;;5070581;28;20048;-72
2022/07/20 05:01:59;;;;;;;12.27;3.10;;;30.20;65.60;;;;;;5070458;28;20067;-72
2022/07/20 05:05:05;;;;;;;12.43;3.30;;;30.80;65.10;;;;;;5070535;28;20048;-72
2022/07/20 05:08:09;;;;;;;17.63;4.28;;;32.10;64.10;;;;;;5070363;28;20081;-72
2022/07/20 05:11:14;;;;;;;6.35;3.05;;;32.90;62.90;;;;;;5070417;28;20059;-72
2022/07/20 05:14:17;;;;;;;7.07;3.00;;;34.00;62.40;;;;;;5070191;28;20059;-72
2022/07/20 05:17:21;;;;;;;6.35;2.63;;;34.90;61.90;;;;;;5070485;28;20043;-72
2022/07/20 05:20:25;;;;;;;5.68;2.90;;;34.80;60.80;;;;;;5070785;28;20035;-72
2022/07/20 05:23:30;;;;;;;9.38;3.55;;;34.70;60.70;;;;;;5070370;28;20052;-73
2022/07/20 05:26:34;;;;;;;5.68;2.50;;;35.30;61.40;;;;;;5070599;28;20043;-72
2022/07/20 05:29:38;;;;;;;6.20;3.15;;;34.70;61.10;;;;;;5070937;28;20043;-72
2022/07/20 05:32:42;;;;;;;3.78;2.85;;;31.90;61.40;;;;;;5070671;28;20104;-72
2022/07/20 05:35:46;;;;;;;5.82;2.80;;;31.00;63.00;;;;;;5070786;28;20055;-72
2022/07/20 05:38:50;;;;;;;7.45;2.95;;;32.40;63.20;;;;;;5070640;28;20090;-72
2022/07/20 05:41:54;;;;;;;8.40;2.78;;;33.30;63.00;;;;;;5070081;28;20055;-72
2022/07/20 05:44:58;;;;;;;10.73;3.10;;;34.50;61.60;;;;;;5069979;28;20051;-72
2022/07/20 05:48:02;;;;;;;5.50;2.70;;;35.40;60.20;;;;;;5070105;28;20048;-73
2022/07/20 05:51:06;;;;;;;5.57;2.58;;;36.00;59.40;;;;;;5070228;28;20051;-72
2022/07/20 05:54:10;;;;;;;9.50;2.85;;;36.70;58.40;;;;;;5069261;28;20044;-72
2022/07/20 05:57:15;;;;;;;5.93;2.63;;;36.90;58.10;;;;;;5069819;28;20491;-72
2022/07/20 06:00:18;;;;;;;5.95;2.90;;;37.00;57.10;;;;;;5070263;28;20059;-72
2022/07/20 06:03:22;;;;;;;4.95;3.00;;;36.50;59.20;;;;;;5069442;28;20039;-72
2022/07/20 06:06:27;;;;;;;8.85;3.63;;;33.40;61.90;;;;;;5061298;28;20051;-72
2022/07/20 06:09:31;;;;;;;7.13;3.60;;;31.50;64.10;;;;;;5074154;28;20044;-72
2022/07/20 06:12:36;;;;;;;3.95;3.25;;;29.90;66.90;;;;;;5074219;28;20044;-71
2022/07/20 06:15:40;;;;;;;4.82;3.10;;;30.80;66.50;;;;;;5074040;28;20047;-71
2022/07/20 06:18:44;;;;;;;5.05;2.80;;;31.70;65.40;;;;;;5073973;28;20390;-71
2022/07/20 06:21:48;;;;;;;8.32;3.20;;;32.80;65.00;;;;;;5070348;28;20075;-72
2022/07/20 06:24:52;;;;;;;4.75;2.78;;;33.80;62.90;;;;;;5069846;28;20794;-72
2022/07/20 06:27:58;;;;;;;4.15;2.95;;;34.10;61.20;;;;;;5071874;28;20062;-71
2022/07/20 06:31:06;;;;;;;7.35;2.60;;;34.50;59.90;;;;;;5069530;28;20043;-72
2022/07/20 06:34:10;;;;;;;8.23;2.38;;;35.00;60.20;;;;;;5083872;28;20055;-72
2022/07/20 06:37:14;;;;;;;8.10;2.50;;;35.50;59.70;;;;;;5072292;28;20051;-72
2022/07/20 06:40:18;;;;;;;6.40;2.75;;;35.70;58.30;;;;;;5053852;28;20124;-72
2022/07/20 06:43:24;;;;;;;4.40;2.30;;;36.50;57.00;;;;;;5068928;28;20039;-72
2022/07/20 06:46:28;;;;;;;4.38;2.10;;;36.50;56.40;;;;;;5060540;28;20051;-72
2022/07/20 06:49:33;;;;;;;5.63;1.80;;;36.20;55.70;;;;;;5065597;28;20035;-72
2022/07/20 06:52:38;;;;;;;4.85;2.40;;;36.90;54.70;;;;;;5082422;28;20051;-72
2022/07/20 06:55:41;;;;;;;10.90;2.38;;;37.10;54.00;;;;;;5084765;28;20051;-72
2022/07/20 06:58:45;;;;;;;4.20;1.70;;;37.30;53.50;;;;;;5077254;28;20395;-72
2022/07/20 07:01:50;;;;;;;3.55;1.63;;;37.60;53.30;;;;;;5071837;28;20367;-72
2022/07/20 07:04:54;;;;;;;4.00;1.80;;;36.40;52.90;;;;;;5078326;28;20509;-72
2022/07/20 07:07:58;;;;;;;4.55;1.92;;;37.20;52.70;;;;;;5071634;28;20055;-72
2022/07/20 07:11:02;;;;;;;6.40;2.47;;;36.20;53.90;;;;;;5084343;28;20529;-72
2022/07/20 07:14:06;;;;;;;6.55;2.60;;;34.40;57.00;;;;;;5088653;28;20051;-72
2022/07/20 07:17:10;;;;;;;6.75;2.28;;;34.40;58.30;;;;;;5072508;28;20047;-72
2022/07/20 07:20:14;;;;;;;2.92;2.10;;;35.50;57.20;;;;;;5072017;28;20043;-72
2022/07/20 07:23:18;;;;;;;3.70;1.70;;;35.80;56.80;;;;;;5071990;28;20038;-72
2022/07/20 07:26:22;;;;;;;3.30;1.83;;;36.90;53.90;;;;;;5071124;28;20043;-72
2022/07/20 07:29:28;;;;;;;2.35;1.60;;;37.30;53.50;;;;;;5059993;28;20383;-72
2022/07/20 07:32:32;;;;;;;2.33;1.83;;;37.50;52.60;;;;;;5072485;28;20466;-72
2022/07/20 07:35:36;;;;;;;3.92;1.80;;;37.50;53.10;;;;;;5075308;28;20391;-72
2022/07/20 07:38:42;;;;;;;2.17;1.63;;;37.80;53.30;;;;;;5072034;28;20052;-72
2022/07/20 07:41:45;;;;;;;3.33;2.00;;;37.50;51.80;;;;;;5080448;28;20035;-72
2022/07/20 07:44:49;;;;;;;5.82;1.67;;;37.10;51.90;;;;;;5075606;28;20391;-73
2022/07/20 07:47:54;;;;;;;3.13;1.27;;;37.60;51.90;;;;;;5079789;28;20063;-72
2022/07/20 07:50:57;;;;;;;3.47;1.20;;;38.80;49.20;;;;;;5067493;28;20055;-72
2022/07/20 07:54:02;;;;;;;3.22;1.25;;;37.80;48.30;;;;;;5057972;28;20505;-72
2022/07/20 07:57:06;;;;;;;2.45;1.30;;;37.90;48.40;;;;;;5066820;28;20094;-72
2022/07/20 08:00:10;;;;;;;1.80;1.17;;;39.60;47.90;;;;;;5069858;28;20482;-72
2022/07/20 08:03:17;;;;;;;2.00;1.30;;;40.90;47.40;;;;;;5084714;28;20043;-72
2022/07/20 08:06:22;;;;;;;8.77;1.70;;;39.90;47.80;;;;;;5055754;28;20051;-72
2022/07/20 08:09:26;;;;;;;1.80;1.23;;;40.30;48.80;;;;;;5079137;28;20059;-72
2022/07/20 08:12:30;;;;;;;3.17;1.20;;;41.90;48.20;;;;;;5070367;28;20052;-72
2022/07/20 08:15:34;;;;;;;3.15;1.63;;;43.00;47.50;;;;;;5051099;28;20112;-72
2022/07/20 08:18:39;;;;;;;2.55;1.20;;;42.80;47.00;;;;;;5051188;28;20044;-72
2022/07/20 08:21:43;;;;;;;4.10;1.50;;;41.20;47.90;;;;;;5058762;28;20044;-72
2022/07/20 08:24:47;;;;;;;2.65;1.30;;;42.50;48.00;;;;;;5070193;28;20047;-71
2022/07/20 08:27:51;;;;;;;6.97;1.88;;;42.90;46.40;;;;;;5071092;28;20040;-72
2022/07/20 08:30:56;;;;;;;2.75;1.00;;;40.80;48.10;;;;;;5051233;28;20056;-72
2022/07/20 08:34:01;;;;;;;3.92;1.50;;;41.50;47.90;;;;;;5050218;28;20056;-71
2022/07/20 08:37:06;;;;;;;2.60;1.27;;;42.30;47.10;;;;;;5071455;28;20063;-72
2022/07/20 08:40:10;;;;;;;2.92;1.40;;;40.90;47.80;;;;;;5082776;28;20035;-72
2022/07/20 08:43:15;;;;;;;4.47;1.20;;;41.90;47.50;;;;;;5082046;28;20534;-72
2022/07/20 08:46:21;;;;;;;6.32;1.40;;;41.60;47.00;;;;;;5065796;28;20044;-73
2022/07/20 08:49:27;;;;;;;2.63;1.23;;;40.60;46.80;;;;;;5075645;28;20047;-72
2022/07/20 08:52:32;;;;;;;2.47;1.30;;;39.90;47.20;;;;;;5066777;28;20044;-72
2022/07/20 08:55:36;;;;;;;2.78;0.90;;;39.90;46.20;;;;;;5066109;28;20062;-72
2022/07/20 08:58:41;;;;;;;4.05;1.45;;;40.10;45.80;;;;;;5074673;28;20044;-72
2022/07/20 09:02:08;;;;;;;5.03;1.45;;;39.60;47.20;;;;;;5062754;28;20036;-72
2022/07/20 09:05:12;;;;;;;4.13;1.30;;;39.20;46.50;;;;;;5067542;28;20757;-72
2022/07/20 09:08:17;;;;;;;2.25;1.25;;;41.30;46.70;;;;;;5080864;28;20043;-73
2022/07/20 09:11:21;;;;;;;1.55;0.80;;;41.10;43.40;;;;;;5069522;28;20051;-72
2022/07/20 09:14:48;;;;;;;1.92;1.23;;;42.70;44.50;;;;;;5065613;28;20051;-71
2022/07/20 09:18:05;;;;;;;1.73;1.05;;;42.30;43.00;;;;;;5050879;28;20056;-72
2022/07/20 09:21:09;;;;;;;3.53;1.00;;;42.20;43.60;;;;;;5068599;28;20039;-72
2022/07/20 09:24:19;;;;;;;3.50;0.98;;;41.90;43.80;;;;;;5070828;28;20047;-72
2022/07/20 09:27:32;;;;;;;3.22;1.35;;;41.10;44.30;;;;;;5076747;28;20087;-72
2022/07/20 09:30:35;;;;;;;2.03;1.05;;;43.40;44.20;;;;;;5067595;28;20576;-72
2022/07/20 09:33:47;;;;;;;6.47;0.93;;;45.10;43.20;;;;;;5082936;28;20039;-72
2022/07/20 09:36:53;;;;;;;2.33;1.00;;;43.70;42.80;;;;;;5069940;28;20043;-73
2022/07/20 09:40:02;;;;;;;1.33;1.20;;;44.30;44.50;;;;;;5071792;28;20058;-72
2022/07/20 09:43:08;;;;;;;;;;;45.20;43.70;;;;;;5080812;28;20059;-72
2022/07/20 09:46:13;;;;;;;3.65;1.63;;;45.50;44.10;;;;;;5060876;28;19912;-69
2022/07/20 09:49:18;;;;;;;2.65;1.10;;;45.70;44.10;;;;;;5065975;28;20039;-71
2022/07/20 09:52:21;;;;;;;3.50;1.10;;;46.30;43.70;;;;;;5094696;28;20043;-71
2022/07/20 09:55:26;;;;;;;5.00;1.55;;;46.10;42.50;;;;;;5073647;28;20047;-73
2022/07/20 09:58:31;;;;;;;1.90;1.15;;;46.80;43.10;;;;;;5074009;28;20044;-72
2022/07/20 10:01:38;;;;;;;4.80;1.40;;;47.50;42.80;;;;;;5074515;28;20047;-71
2022/07/20 10:04:44;;;;;;;2.65;1.27;;;45.20;42.70;;;;;;5076491;28;20039;-72
2022/07/20 10:07:49;;;;;;;2.58;1.45;;;46.60;43.80;;;;;;5073866;28;20047;-73
2022/07/20 10:10:53;;;;;;;2.00;1.38;;;49.10;43.20;;;;;;5084782;28;20047;-72
2022/07/20 10:14:01;;;;;;;2.10;1.20;;;50.50;42.40;;;;;;5071457;28;20058;-72
2022/07/20 10:17:06;;;;;;;4.97;1.65;;;48.20;42.50;;;;;;5080024;28;20059;-72
2022/07/20 10:20:42;;;;;;;5.45;1.60;;;45.00;43.50;;;;;;5073298;28;20502;-72
2022/07/20 10:24:22;;;;;;;2.15;1.48;;;47.00;43.50;;;;;;5053390;28;20047;-72
2022/07/20 10:27:27;;;;;;;3.58;1.70;;;48.70;43.20;;;;;;5067711;28;20043;-72
2022/07/20 10:30:31;;;;;;;3.55;1.65;;;47.60;43.10;;;;;;5053140;28;20048;-72
2022/07/20 10:33:37;;;;;;;5.78;1.50;;;48.20;43.30;;;;;;5069425;28;20043;-72
2022/07/20 10:37:01;;;;;;;3.80;1.50;;;47.20;43.20;;;;;;5081385;28;20044;-74
2022/07/20 10:40:07;;;;;;;3.72;1.63;;;49.60;43.10;;;;;;5066892;28;20036;-73
2022/07/20 10:43:16;;;;;;;5.10;1.92;;;51.00;42.40;;;;;;5076914;28;20052;-73
2022/07/20 10:46:33;;;;;;;;;;;47.70;41.60;;;;;;5085038;28;20043;-72
2022/07/20 10:50:01;;;;;;;3.13;1.70;;;49.60;42.40;;;;;;5063599;28;19915;-72
2022/07/20 10:53:11;;;;;;;3.15;1.40;;;51.40;42.10;;;;;;5072305;28;20055;-73
2022/07/20 10:56:27;;;;;;;3.88;1.90;;;52.10;41.60;;;;;;5076354;28;20055;-71
2022/07/20 10:59:31;;;;;;;4.60;1.70;;;48.70;41.80;;;;;;5075827;28;20059;-72
2022/07/20 11:02:35;;;;;;;5.15;1.63;;;44.30;43.90;;;;;;5053258;28;20052;-72
2022/07/20 11:05:40;;;;;;;4.13;1.55;;;44.70;44.40;;;;;;5055769;28;20036;-72
2022/07/20 11:08:49;;;;;;;3.22;1.73;;;43.60;44.10;;;;;;5072356;28;20052;-72
2022/07/20 11:11:53;;;;;;;2.50;1.80;;;42.00;44.50;;;;;;5059776;28;20122;-72
2022/07/20 11:14:57;;;;;;;6.78;1.98;;;42.60;44.90;;;;;;5070814;28;20282;-73
2022/07/20 11:18:01;;;;;;;11.43;3.08;;;42.10;44.50;;;;;;5071244;28;20040;-72
2022/07/20 11:21:11;;;;;;;4.28;2.03;;;45.10;44.10;;;;;;5075363;28;20039;-73
2022/07/20 11:24:23;;;;;;;6.35;2.13;;;47.50;43.30;;;;;;5073691;28;20035;-73
2022/07/20 11:27:27;;;;;;;3.78;1.90;;;45.30;43.50;;;;;;5071498;28;20042;-72
2022/07/20 11:30:33;;;;;;;4.05;1.85;;;46.50;43.30;;;;;;5079530;28;20048;-72
2022/07/20 11:33:39;;;;;;;5.15;2.00;;;46.70;43.80;;;;;;5070068;28;20043;-73
2022/07/20 11:36:43;;;;;;;4.97;1.92;;;47.30;43.10;;;;;;5079875;28;20043;-72
2022/07/20 11:39:48;;;;;;;3.60;1.88;;;46.80;43.00;;;;;;5074449;28;20514;-72
2022/07/20 11:43:06;;;;;;;5.43;1.90;;;43.70;43.70;;;;;;5076728;28;20367;-72
2022/07/20 11:46:23;;;;;;;3.63;1.80;;;43.80;44.10;;;;;;5052043;28;20040;-73
2022/07/20 11:49:27;;;;;;;4.30;1.83;;;45.80;43.50;;;;;;5061530;28;20056;-72
2022/07/20 11:52:39;;;;;;;3.10;1.75;;;47.00;43.30;;;;;;5070257;28;20115;-72
2022/07/20 11:55:43;;;;;;;4.65;2.20;;;47.20;43.20;;;;;;5070959;28;20391;-72
2022/07/20 11:58:51;;;;;;;3.10;1.90;;;47.40;43.00;;;;;;5070303;28;20051;-72
2022/07/20 12:02:00;;;;;;;4.72;2.25;;;46.50;42.60;;;;;;5080168;28;20369;-72
2022/07/20 12:05:04;;;;;;;3.70;2.28;;;43.30;44.50;;;;;;5066540;28;20486;-73
2022/07/20 12:08:13;;;;;;;4.60;2.20;;;42.10;45.40;;;;;;5065591;28;20525;-72
2022/07/20 12:11:17;;;;;;;4.32;2.00;;;39.30;46.40;;;;;;5077178;28;20047;-72
2022/07/20 12:14:30;;;;;;;4.65;2.03;;;41.30;45.80;;;;;;5067417;28;20043;-72
2022/07/20 12:17:34;;;;;;;4.25;2.35;;;43.20;45.60;;;;;;5070747;28;20486;-73
2022/07/20 12:20:57;;;;;;;3.30;2.22;;;40.50;45.50;;;;;;5060417;28;20494;-72
2022/07/20 12:24:04;;;;;;;5.85;2.55;;;40.60;45.90;;;;;;5070320;28;20051;-72
2022/07/20 12:27:08;;;;;;;4.70;2.40;;;41.70;45.70;;;;;;5074229;28;20043;-72
2022/07/20 12:30:34;;;;;;;8.77;3.05;;;42.30;45.90;;;;;;5072960;28;20051;-72
2022/07/20 12:33:58;;;;;;;4.53;2.50;;;42.70;45.90;;;;;;5075218;28;20054;-72
2022/07/20 12:37:02;;;;;;;7.45;2.47;;;40.40;46.00;;;;;;5078695;28;20044;-72
2022/07/20 12:40:07;;;;;;;5.82;2.50;;;40.00;46.80;;;;;;5069239;28;20506;-72
2022/07/20 12:43:32;;;;;;;5.35;2.60;;;40.60;46.50;;;;;;5064338;28;20493;-72
2022/07/20 12:46:36;;;;;;;7.30;3.00;;;40.30;46.50;;;;;;5072528;28;20043;-73
2022/07/20 12:49:41;;;;;;;12.55;2.35;;;41.90;46.30;;;;;;5077182;28;20043;-73
2022/07/20 12:52:45;;;;;;;5.70;2.58;;;41.20;46.10;;;;;;5057203;28;20379;-72
2022/07/20 12:55:48;;;;;;;4.00;2.28;;;40.80;46.80;;;;;;5077978;28;20051;-72
2022/07/20 12:58:53;;;;;;;8.68;2.75;;;42.10;46.40;;;;;;5062716;28;20502;-72
2022/07/20 13:01:58;;;;;;;4.50;3.13;;;40.60;45.90;;;;;;5075753;28;20059;-72
2022/07/20 13:05:03;;;;;;;4.03;2.40;;;41.20;46.40;;;;;;5062462;28;20048;-73
2022/07/20 13:08:07;;;;;;;5.00;2.33;;;41.70;45.80;;;;;;5028145;28;20545;-72
2022/07/20 13:11:12;;;;;;;8.73;2.70;;;41.90;45.60;;;;;;5060782;28;20039;-72
2022/07/20 13:14:20;;;;;;;7.45;2.13;;;42.70;45.40;;;;;;5070199;28;20047;-72
2022/07/20 13:17:24;;;;;;;3.60;2.40;;;43.50;45.80;;;;;;5070317;28;20083;-72
2022/07/20 13:20:28;;;;;;;4.85;2.58;;;43.90;45.20;;;;;;5072064;28;20040;-73
2022/07/20 13:23:32;;;;;;;8.30;2.63;;;42.50;45.40;;;;;;5063496;28;20032;-72
2022/07/20 13:26:36;;;;;;;3.40;2.55;;;40.50;46.60;;;;;;5073641;28;20387;-72
2022/07/20 13:29:42;;;;;;;6.93;2.60;;;40.00;46.80;;;;;;5073604;28;20039;-73
2022/07/20 13:32:46;;;;;;;4.90;2.60;;;38.90;47.70;;;;;;5068070;28;20044;-72
2022/07/20 13:35:50;;;;;;;4.95;2.63;;;38.40;47.80;;;;;;5064708;28;20067;-72
2022/07/20 13:38:55;;;;;;;6.03;2.67;;;39.40;48.00;;;;;;5069712;28;20040;-72
2022/07/20 13:41:58;;;;;;;3.55;2.60;;;40.40;46.80;;;;;;5067459;28;20403;-71
2022/07/20 13:45:03;;;;;;;5.93;2.95;;;41.40;46.80;;;;;;5067785;28;20047;-71
2022/07/20 13:48:07;;;;;;;10.48;2.42;;;41.40;46.30;;;;;;5070379;28;20048;-71
2022/07/20 13:51:12;;;;;;;4.88;2.40;;;40.90;46.50;;;;;;5050971;28;20052;-72
2022/07/20 13:54:17;;;;;;;4.28;2.42;;;40.80;46.40;;;;;;5066430;28;20047;-71
2022/07/20 13:57:22;;;;;;;3.65;2.45;;;40.60;46.70;;;;;;5055631;28;20040;-72
2022/07/20 14:00:26;;;;;;;3.30;2.25;;;40.40;47.00;;;;;;5059986;28;20032;-71
2022/07/20 14:03:31;;;;;;;3.03;2.30;;;39.90;47.10;;;;;;5064038;28;20048;-72
2022/07/20 14:06:34;;;;;;;4.57;2.80;;;39.90;47.20;;;;;;5061459;28;20032;-71
2022/07/20 14:09:39;;;;;;;5.43;2.53;;;39.90;46.80;;;;;;5066380;28;20047;-72
2022/07/20 14:12:43;;;;;;;6.43;2.65;;;39.50;47.80;;;;;;5069056;28;20039;-71
2022/07/20 14:15:48;;;;;;;3.70;2.35;;;39.20;48.10;;;;;;5067836;28;20398;-71
2022/07/20 14:18:51;;;;;;;9.13;2.70;;;38.70;48.50;;;;;;5064525;28;20062;-72
2022/07/20 14:21:55;;;;;;;4.85;2.78;;;37.70;48.90;;;;;;5063368;28;20040;-71
2022/07/20 14:25:00;;;;;;;5.50;2.83;;;37.90;48.50;;;;;;5062709;28;20051;-71
2022/07/20 14:28:03;;;;;;;4.40;2.55;;;38.20;48.10;;;;;;5067939;28;20032;-72
2022/07/20 14:31:07;;;;;;;5.97;2.85;;;38.60;48.60;;;;;;5066238;28;20407;-72
2022/07/20 14:34:11;;;;;;;4.55;3.00;;;37.60;49.10;;;;;;5066021;28;20040;-71
2022/07/20 14:37:15;;;;;;;5.78;2.67;;;37.60;49.00;;;;;;5065200;28;20124;-72
2022/07/20 14:40:20;;;;;;;8.18;3.05;;;37.40;49.00;;;;;;5066670;28;20044;-71
2022/07/20 14:43:24;;;;;;;6.32;3.08;;;37.60;48.70;;;;;;5062855;28;20044;-72
2022/07/20 14:46:28;;;;;;;6.60;2.53;;;38.10;48.60;;;;;;5062464;28;20039;-71
2022/07/20 14:49:32;;;;;;;4.72;2.15;;;38.60;48.50;;;;;;5066080;28;20262;-73
2022/07/20 14:52:37;;;;;;;4.40;2.45;;;39.10;48.40;;;;;;5066689;28;20043;-73
2022/07/20 14:55:41;;;;;;;3.55;2.58;;;39.50;48.30;;;;;;5059726;28;20039;-72
2022/07/20 14:58:46;;;;;;;9.13;2.67;;;39.50;47.70;;;;;;5055923;28;20047;-71
2022/07/20 15:01:51;;;;;;;7.43;2.40;;;39.80;48.20;;;;;;5072198;28;20027;-71
2022/07/20 15:04:55;;;;;;;6.03;2.70;;;39.30;48.30;;;;;;5072346;28;20391;-71
2022/07/20 15:08:01;;;;;;;5.13;3.00;;;39.30;48.40;;;;;;5072416;28;20047;-72
2022/07/20 15:11:05;;;;;;;6.60;3.10;;;39.50;48.30;;;;;;5071989;28;20032;-71
2022/07/20 15:14:10;;;;;;;3.90;2.53;;;39.60;47.80;;;;;;5071754;28;20055;-71
2022/07/20 15:17:14;;;;;;;14.45;3.17;;;39.70;47.90;;;;;;5071238;28;20036;-71
2022/07/20 15:20:18;;;;;;;6.45;2.40;;;39.70;47.60;;;;;;5065490;28;20043;-73
2022/07/20 15:23:23;;;;;;;5.32;2.63;;;39.40;48.50;;;;;;5066977;28;20039;-71
2022/07/20 15:26:29;;;;;;;6.63;2.72;;;39.40;47.80;;;;;;5071604;28;20047;-71
2022/07/20 15:29:32;;;;;;;7.10;3.17;;;39.40;48.00;;;;;;5071008;28;20059;-71
2022/07/20 15:32:37;;;;;;;13.85;2.85;;;39.30;48.00;;;;;;5070167;28;20043;-71
2022/07/20 15:35:41;;;;;;;3.08;1.92;;;39.40;48.30;;;;;;5070369;28;20493;-71
2022/07/20 15:38:45;;;;;;;4.75;2.55;;;39.40;48.50;;;;;;5070618;28;20047;-72
2022/07/20 15:41:51;;;;;;;5.10;2.70;;;39.40;48.60;;;;;;5070810;28;20051;-72
2022/07/20 15:44:55;;;;;;;8.30;2.70;;;39.30;48.60;;;;;;5069320;28;20032;-72
2022/07/20 15:47:59;;;;;;;6.95;2.53;;;39.20;48.80;;;;;;5069436;28;20051;-71
2022/07/20 15:51:03;;;;;;;3.30;2.17;;;39.20;49.00;;;;;;5058931;28;20051;-71
2022/07/20 15:54:07;;;;;;;7.55;2.65;;;39.20;48.70;;;;;;5069322;28;20395;-71
2022/07/20 15:57:20;;;;;;;5.60;2.70;;;39.10;48.50;;;;;;5066012;28;20578;-72
2022/07/20 16:00:24;;;;;;;5.22;2.63;;;39.10;48.30;;;;;;5070813;28;20490;-71
2022/07/20 16:03:28;;;;;;;7.53;2.70;;;39.00;49.20;;;;;;5070196;28;20040;-72
2022/07/20 16:06:32;;;;;;;5.95;2.78;;;38.90;49.00;;;;;;5070888;28;20051;-71
2022/07/20 16:09:36;;;;;;;12.65;3.33;;;38.80;49.30;;;;;;5068480;28;20047;-71
2022/07/20 16:12:41;;;;;;;6.68;2.50;;;38.70;49.70;;;;;;5071407;28;20055;-72